createdAt,value
2022-10-16T00:01:20.685Z,1.38
2022-10-16T00:03:48.153Z,1.30
2022-10-16T00:06:16.116Z,1.20
2022-10-16T00:08:43.359Z,1.20
2022-10-16T00:11:13.626Z,1.50
2022-10-16T00:13:42.201Z,1.38
2022-10-16T00:16:09.718Z,1.40
2022-10-16T00:18:38.125Z,1.60
2022-10-16T00:21:19.927Z,1.50
2022-10-16T00:23:47.251Z,1.40
2022-10-16T00:26:17.322Z,1.10
2022-10-16T00:28:46.085Z,1.50
2022-10-16T00:31:13.057Z,1.52
2022-10-16T00:33:40.846Z,1.90
2022-10-16T00:36:11.066Z,1.40
2022-10-16T00:38:38.795Z,1.50
2022-10-16T00:41:07.416Z,1.50
2022-10-16T00:43:43.902Z,1.30
2022-10-16T00:46:19.894Z,1.40
2022-10-16T00:49:01.818Z,1.60
2022-10-16T00:51:53.426Z,1.20
2022-10-16T00:54:31.941Z,1.65
2022-10-16T00:57:02.423Z,1.88
2022-10-16T00:59:33.719Z,1.58
2022-10-16T01:02:01.849Z,1.30
2022-10-16T01:04:35.506Z,1.90
2022-10-16T01:07:11.394Z,1.50
2022-10-16T01:10:03.917Z,1.35
2022-10-16T01:12:42.110Z,1.60
2022-10-16T01:15:15.817Z,1.90
2022-10-16T01:17:51.643Z,1.58
2022-10-16T01:20:31.947Z,1.65
2022-10-16T01:27:08.924Z,1.50
2022-10-16T01:29:46.005Z,1.50
2022-10-16T01:32:41.056Z,1.80
2022-10-16T01:35:44.253Z,1.70
2022-10-16T01:38:19.719Z,1.75
2022-10-16T01:40:51.755Z,1.50
2022-10-16T01:43:25.402Z,1.30
2022-10-16T01:45:53.490Z,1.38
2022-10-16T01:48:21.939Z,1.90
2022-10-16T01:51:04.804Z,1.65
2022-10-16T01:53:32.547Z,1.58
2022-10-16T01:56:00.450Z,1.48
2022-10-16T01:58:28.829Z,1.67
2022-10-16T02:00:56.300Z,1.60
2022-10-16T02:03:23.291Z,1.60
2022-10-16T02:05:56.620Z,1.60
2022-10-16T02:08:25.880Z,1.63
2022-10-16T02:10:52.754Z,1.55
2022-10-16T02:13:26.808Z,1.38
2022-10-16T02:15:53.724Z,1.63
2022-10-16T02:18:20.853Z,1.77
2022-10-16T02:20:53.895Z,1.63
2022-10-16T02:24:03.382Z,1.77
2022-10-16T02:26:36.869Z,2.10
2022-10-16T02:29:08.254Z,1.77
2022-10-16T02:31:38.638Z,2.10
2022-10-16T02:34:07.037Z,1.67
2022-10-16T02:36:36.030Z,1.80
2022-10-16T02:39:05.312Z,2.03
2022-10-16T02:41:32.732Z,2.25
2022-10-16T02:43:59.527Z,2.40
2022-10-16T02:46:26.271Z,2.10
2022-10-16T02:48:52.993Z,1.88
2022-10-16T02:51:19.657Z,1.67
2022-10-16T02:53:46.434Z,1.95
2022-10-16T02:56:13.214Z,1.83
2022-10-16T02:58:39.965Z,1.90
2022-10-16T03:01:06.803Z,2.10
2022-10-16T03:03:33.639Z,2.17
2022-10-16T03:06:00.389Z,2.05
2022-10-16T03:08:27.116Z,2.30
2022-10-16T03:10:53.942Z,2.00
2022-10-16T03:13:21.453Z,2.17
2022-10-16T03:15:48.452Z,2.38
2022-10-16T03:18:15.455Z,2.10
2022-10-16T03:20:43.585Z,2.20
2022-10-16T03:23:10.635Z,2.22
2022-10-16T03:25:37.394Z,1.88
2022-10-16T03:28:04.455Z,2.40
2022-10-16T03:30:31.183Z,2.47
2022-10-16T03:32:57.881Z,2.25
2022-10-16T03:35:25.734Z,2.30
2022-10-16T03:37:52.621Z,2.97
2022-10-16T03:40:19.303Z,2.10
2022-10-16T03:42:46.074Z,2.28
2022-10-16T03:45:13.044Z,2.28
2022-10-16T03:47:39.740Z,1.85
2022-10-16T03:50:07.100Z,2.30
2022-10-16T03:52:33.976Z,2.30
2022-10-16T03:55:00.800Z,2.20
2022-10-16T03:57:27.852Z,2.05
2022-10-16T03:59:54.752Z,2.10
2022-10-16T04:02:21.486Z,2.25
2022-10-16T04:04:48.244Z,2.00
2022-10-16T04:07:14.940Z,2.45
2022-10-16T04:09:41.715Z,2.17
2022-10-16T04:12:08.444Z,2.13
2022-10-16T04:14:35.182Z,2.33
2022-10-16T04:17:01.885Z,2.50
2022-10-16T04:19:28.621Z,2.20
2022-10-16T04:21:55.350Z,2.38
2022-10-16T04:24:22.160Z,2.42
2022-10-16T04:26:48.886Z,2.75
2022-10-16T04:29:15.686Z,2.35
2022-10-16T04:31:42.511Z,2.15
2022-10-16T04:34:09.162Z,2.35
2022-10-16T04:36:35.849Z,2.30
2022-10-16T04:39:02.657Z,2.90
2022-10-16T04:41:29.351Z,2.25
2022-10-16T04:43:56.113Z,2.40
2022-10-16T04:46:22.903Z,2.10
2022-10-16T04:48:49.640Z,2.15
2022-10-16T04:51:16.353Z,2.40
2022-10-16T04:53:43.155Z,2.67
2022-10-16T04:56:09.816Z,2.78
2022-10-16T04:58:36.712Z,2.08
2022-10-16T05:01:03.426Z,2.35
2022-10-16T05:05:57.917Z,2.40
2022-10-16T05:08:24.913Z,2.40
2022-10-16T05:10:51.713Z,2.20
2022-10-16T05:13:18.662Z,2.28
2022-10-16T05:15:49.304Z,2.50
2022-10-16T05:18:16.617Z,2.38
2022-10-16T05:20:43.613Z,2.03
2022-10-16T05:25:40.453Z,2.50
2022-10-16T05:28:07.194Z,2.42
2022-10-16T05:30:33.970Z,3.47
2022-10-16T05:33:00.688Z,2.70
2022-10-16T05:35:27.620Z,3.28
2022-10-16T05:37:54.327Z,2.55
2022-10-16T05:40:21.053Z,2.65
2022-10-16T05:42:47.916Z,2.38
2022-10-16T05:45:14.637Z,2.88
2022-10-16T05:47:41.364Z,2.72
2022-10-16T05:50:08.525Z,2.20
2022-10-16T05:52:35.217Z,2.50
2022-10-16T05:55:01.924Z,2.60
2022-10-16T05:57:28.977Z,2.42
2022-10-16T05:59:55.922Z,2.67
2022-10-16T06:02:22.968Z,2.10
2022-10-16T06:04:49.737Z,2.38
2022-10-16T06:07:16.461Z,2.85
2022-10-16T06:09:43.190Z,2.25
2022-10-16T06:12:09.927Z,2.33
2022-10-16T06:14:36.644Z,2.40
2022-10-16T06:17:03.452Z,2.10
2022-10-16T06:19:30.232Z,2.25
2022-10-16T06:21:58.975Z,2.05
2022-10-16T06:24:26.191Z,2.15
2022-10-16T06:26:52.890Z,2.30
2022-10-16T06:29:19.620Z,2.10
2022-10-16T06:31:46.421Z,2.10
2022-10-16T06:34:13.216Z,1.90
2022-10-16T06:36:40.754Z,2.35
2022-10-16T06:39:08.317Z,2.20
2022-10-16T06:41:35.844Z,2.08
2022-10-16T06:44:05.968Z,2.15
2022-10-16T06:46:32.740Z,2.75
2022-10-16T06:48:59.421Z,1.95
2022-10-16T06:51:26.808Z,2.03
2022-10-16T06:54:02.845Z,1.98
2022-10-16T06:56:33.828Z,2.22
2022-10-16T06:59:01.202Z,2.00
2022-10-16T07:01:28.710Z,2.03
2022-10-16T07:03:55.615Z,2.20
2022-10-16T07:06:24.638Z,2.25
2022-10-16T07:08:52.151Z,1.90
2022-10-16T07:11:23.399Z,2.03
2022-10-16T07:13:55.090Z,2.03
2022-10-16T07:16:28.986Z,1.83
2022-10-16T07:19:00.032Z,2.17
2022-10-16T07:21:30.201Z,2.25
2022-10-16T07:24:02.232Z,2.08
2022-10-16T07:26:31.222Z,1.92
2022-10-16T07:28:58.395Z,2.05
2022-10-16T07:31:25.599Z,1.88
2022-10-16T07:33:52.659Z,2.10
2022-10-16T07:36:21.272Z,2.17
2022-10-16T07:38:48.645Z,2.08
2022-10-16T07:41:17.998Z,2.03
2022-10-16T07:43:53.760Z,2.25
2022-10-16T07:46:21.881Z,2.38
2022-10-16T07:48:49.349Z,2.00
2022-10-16T07:51:19.135Z,2.35
2022-10-16T07:53:46.123Z,2.20
2022-10-16T07:56:13.278Z,2.10
2022-10-16T07:58:40.178Z,1.95
2022-10-16T08:01:12.495Z,2.55
2022-10-16T08:03:39.549Z,2.25
2022-10-16T08:06:06.349Z,2.28
2022-10-16T08:08:33.197Z,2.15
2022-10-16T08:11:00.015Z,2.08
2022-10-16T08:13:27.723Z,2.13
2022-10-16T08:15:55.175Z,2.05
2022-10-16T08:18:21.980Z,2.58
2022-10-16T08:20:48.669Z,2.10
2022-10-16T08:23:15.865Z,2.05
2022-10-16T08:25:42.715Z,1.92
2022-10-16T08:28:11.696Z,2.15
2022-10-16T08:30:38.522Z,2.20
2022-10-16T08:33:06.946Z,2.30
2022-10-16T08:35:33.761Z,2.08
2022-10-16T08:38:00.424Z,1.95
2022-10-16T08:40:32.053Z,2.25
2022-10-16T08:43:17.746Z,2.00
2022-10-16T08:46:31.396Z,1.92
2022-10-16T08:49:00.368Z,2.08
2022-10-16T08:51:32.802Z,2.30
2022-10-16T08:54:12.306Z,2.10
2022-10-16T08:56:38.929Z,1.95
2022-10-16T08:59:11.406Z,2.10
2022-10-16T09:01:45.044Z,2.10
2022-10-16T09:04:56.329Z,2.08
2022-10-16T09:07:40.004Z,2.50
2022-10-16T09:10:18.128Z,2.17
2022-10-16T09:12:52.714Z,1.95
2022-10-16T09:15:37.482Z,2.10
2022-10-16T09:18:34.666Z,2.10
2022-10-16T09:21:24.282Z,2.60
2022-10-16T09:23:51.561Z,2.00
2022-10-16T09:26:20.135Z,1.88
2022-10-16T09:28:46.986Z,2.17
2022-10-16T09:31:22.265Z,2.30
2022-10-16T09:33:58.391Z,2.05
2022-10-16T09:36:27.881Z,1.88
2022-10-16T09:39:08.549Z,2.10
2022-10-16T09:41:44.688Z,1.90
2022-10-16T09:44:32.774Z,2.00
2022-10-16T09:47:13.139Z,2.30
2022-10-16T09:49:39.848Z,2.35
2022-10-16T09:52:17.768Z,1.92
2022-10-16T09:54:56.482Z,2.10
2022-10-16T09:57:24.732Z,1.90
2022-10-16T09:59:57.102Z,2.13
2022-10-16T10:02:34.893Z,1.30
2022-10-16T10:05:01.986Z,1.80
2022-10-16T10:07:35.866Z,1.90
2022-10-16T10:10:07.161Z,1.75
2022-10-16T10:12:36.829Z,1.83
2022-10-16T10:15:11.888Z,1.80
2022-10-16T10:17:50.452Z,1.73
2022-10-16T10:20:32.198Z,2.10
2022-10-16T10:22:59.087Z,1.80
2022-10-16T10:25:44.594Z,1.73
2022-10-16T10:28:14.337Z,1.50
2022-10-16T10:31:06.365Z,2.10
2022-10-16T10:34:02.093Z,2.17
2022-10-16T10:36:42.776Z,2.22
2022-10-16T10:39:41.629Z,2.63
2022-10-16T10:42:31.373Z,2.33
2022-10-16T10:45:16.157Z,2.47
2022-10-16T10:47:56.514Z,2.45
2022-10-16T10:50:31.960Z,2.40
2022-10-16T10:53:19.146Z,2.30
2022-10-16T10:55:52.239Z,1.80
2022-10-16T10:58:37.780Z,2.30
2022-10-16T11:01:14.873Z,1.90
2022-10-16T11:04:03.028Z,2.30
2022-10-16T11:06:32.013Z,1.63
2022-10-16T11:09:24.678Z,1.92
2022-10-16T11:12:02.988Z,1.58
2022-10-16T11:14:52.536Z,2.10
2022-10-16T11:17:43.142Z,2.17
2022-10-16T11:20:27.620Z,1.75
2022-10-16T11:23:02.639Z,2.05
2022-10-16T11:25:31.240Z,3.10
2022-10-16T11:28:18.757Z,2.40
2022-10-16T11:30:54.885Z,2.22
2022-10-16T11:33:38.903Z,3.40
2022-10-16T11:36:24.126Z,3.00
2022-10-16T11:39:07.544Z,2.80
2022-10-16T11:41:42.299Z,2.13
2022-10-16T11:44:33.292Z,2.10
2022-10-16T11:47:46.699Z,3.20
2022-10-16T11:50:33.977Z,10.35
2022-10-16T11:53:16.496Z,11.20
2022-10-16T11:55:46.998Z,9.18
2022-10-16T11:58:26.180Z,5.00
2022-10-16T12:01:44.074Z,4.18
2022-10-16T12:04:21.611Z,3.85
2022-10-16T12:06:54.065Z,6.05
2022-10-16T12:09:30.877Z,5.28
2022-10-16T12:11:57.748Z,6.90
2022-10-16T12:14:42.904Z,2.55
2022-10-16T12:17:36.904Z,3.97
2022-10-16T12:20:33.614Z,4.80
2022-10-16T12:23:03.340Z,3.88
2022-10-16T12:25:34.032Z,2.83
2022-10-16T12:28:03.495Z,3.10
2022-10-16T12:30:35.822Z,4.82
2022-10-16T12:33:06.561Z,2.60
2022-10-16T12:35:36.155Z,3.40
2022-10-16T12:38:19.365Z,4.25
2022-10-16T12:40:55.575Z,4.15
2022-10-16T12:43:26.071Z,4.30
2022-10-16T12:46:07.378Z,3.80
2022-10-16T12:48:48.315Z,2.55
2022-10-16T12:51:30.342Z,1.60
2022-10-16T12:54:13.620Z,2.63
2022-10-16T12:57:11.455Z,1.70
2022-10-16T13:00:05.524Z,1.70
2022-10-16T13:02:56.872Z,2.75
2022-10-16T13:05:51.032Z,2.10
2022-10-16T13:08:39.531Z,2.03
2022-10-16T13:11:17.153Z,2.20
2022-10-16T13:14:08.706Z,1.70
2022-10-16T13:16:44.222Z,2.10
2022-10-16T13:19:25.869Z,2.25
2022-10-16T13:21:52.510Z,2.00
2022-10-16T13:24:25.311Z,1.70
2022-10-16T13:27:05.021Z,2.10
2022-10-16T13:29:33.678Z,1.23
2022-10-16T13:32:02.466Z,1.92
2022-10-16T13:34:30.149Z,1.50
2022-10-16T13:36:56.904Z,1.77
2022-10-16T13:39:26.550Z,1.60
2022-10-16T13:42:26.985Z,1.67
2022-10-16T13:44:56.470Z,1.52
2022-10-16T13:47:25.719Z,1.70
2022-10-16T13:50:07.121Z,1.88
2022-10-16T13:52:34.041Z,1.77
2022-10-16T13:55:02.252Z,1.90
2022-10-16T13:57:29.530Z,1.60
2022-10-16T13:59:56.544Z,2.05
2022-10-16T14:02:29.408Z,1.95
2022-10-16T14:04:58.594Z,2.60
2022-10-16T14:07:31.152Z,1.80
2022-10-16T14:10:06.120Z,2.10
2022-10-16T14:12:33.437Z,2.25
2022-10-16T14:15:01.612Z,1.63
2022-10-16T14:17:29.921Z,1.67
2022-10-16T14:20:04.156Z,1.65
2022-10-16T14:22:42.818Z,1.98
2022-10-16T14:25:22.647Z,1.90
2022-10-16T14:28:05.048Z,2.13
2022-10-16T14:30:34.761Z,1.60
2022-10-16T14:33:04.894Z,1.63
2022-10-16T14:35:41.005Z,1.73
2022-10-16T14:38:20.129Z,1.60
2022-10-16T14:40:51.129Z,1.63
2022-10-16T14:43:32.376Z,1.80
2022-10-16T14:45:59.223Z,1.88
2022-10-16T14:48:26.291Z,2.17
2022-10-16T14:50:52.997Z,1.58
2022-10-16T14:53:19.818Z,1.70
2022-10-16T14:55:46.716Z,2.22
2022-10-16T14:58:19.788Z,1.98
2022-10-16T15:00:47.261Z,1.90
2022-10-16T15:03:14.154Z,2.05
2022-10-16T15:05:40.987Z,1.92
2022-10-16T15:08:07.778Z,1.55
2022-10-16T15:10:45.101Z,1.67
2022-10-16T15:13:15.117Z,2.10
2022-10-16T15:15:44.915Z,1.80
2022-10-16T15:18:11.987Z,2.08
2022-10-16T15:20:40.523Z,2.00
2022-10-16T15:23:16.578Z,1.88
2022-10-16T15:25:47.629Z,1.92
2022-10-16T15:28:16.113Z,1.58
2022-10-16T15:30:43.031Z,1.60
2022-10-16T15:33:19.572Z,2.10
2022-10-16T15:35:50.676Z,1.75
2022-10-16T15:38:18.964Z,2.00
2022-10-16T15:40:47.147Z,1.77
2022-10-16T15:43:14.215Z,2.17
2022-10-16T15:45:41.222Z,1.85
2022-10-16T15:48:12.917Z,1.50
2022-10-16T15:50:40.204Z,2.08
2022-10-16T15:53:07.122Z,1.90
2022-10-16T15:55:35.048Z,1.67
2022-10-16T15:58:01.794Z,2.03
2022-10-16T16:00:28.539Z,2.30
2022-10-16T16:02:55.672Z,2.28
2022-10-16T16:05:23.177Z,1.55
2022-10-16T16:07:50.964Z,1.80
2022-10-16T16:10:18.620Z,2.22
2022-10-16T16:12:52.468Z,2.17
2022-10-16T16:15:21.624Z,2.22
2022-10-16T16:17:48.857Z,2.50
2022-10-16T16:20:16.134Z,2.30
2022-10-16T16:22:43.075Z,2.15
2022-10-16T16:25:09.974Z,2.35
2022-10-16T16:27:39.280Z,2.20
2022-10-16T16:30:08.405Z,2.50
2022-10-16T16:32:36.145Z,2.28
2022-10-16T16:35:03.986Z,2.38
2022-10-16T16:37:31.217Z,2.47
2022-10-16T16:39:59.429Z,2.00
2022-10-16T16:42:29.482Z,2.50
2022-10-16T16:44:56.405Z,2.28
2022-10-16T16:47:23.215Z,4.18
2022-10-16T16:49:50.088Z,25.35
2022-10-16T16:52:16.810Z,14.30
2022-10-16T16:54:44.865Z,12.77
2022-10-16T16:57:11.684Z,7.47
2022-10-16T16:59:38.401Z,5.97
2022-10-16T17:02:05.237Z,3.38
2022-10-16T17:04:32.103Z,3.03
2022-10-16T17:06:58.915Z,3.30
2022-10-16T17:09:25.634Z,3.47
2022-10-16T17:11:52.350Z,3.00
2022-10-16T17:14:19.144Z,4.53
2022-10-16T17:16:46.236Z,2.88
2022-10-16T17:19:15.763Z,3.42
2022-10-16T17:21:43.636Z,4.60
2022-10-16T17:24:11.109Z,4.60
2022-10-16T17:26:40.256Z,4.22
2022-10-16T17:29:07.860Z,4.07
2022-10-16T17:31:36.463Z,4.80
2022-10-16T17:34:06.272Z,5.40
2022-10-16T17:36:35.776Z,5.70
2022-10-16T17:39:06.152Z,6.45
2022-10-16T17:41:33.349Z,5.35
2022-10-16T17:44:00.292Z,5.90
2022-10-16T17:46:27.479Z,5.18
2022-10-16T17:48:57.760Z,5.43
2022-10-16T17:51:27.309Z,5.20
2022-10-16T17:53:56.801Z,5.22
2022-10-16T17:56:24.606Z,4.97
2022-10-16T17:58:56.809Z,5.57
2022-10-16T18:01:26.647Z,4.97
2022-10-16T18:03:59.251Z,5.05
2022-10-16T18:06:26.747Z,5.60
2022-10-16T18:08:55.135Z,5.32
2022-10-16T18:11:23.003Z,5.68
2022-10-16T18:13:53.248Z,5.22
2022-10-16T18:16:20.317Z,5.28
2022-10-16T18:18:47.880Z,4.60
2022-10-16T18:21:17.764Z,5.65
2022-10-16T18:23:50.706Z,4.93
2022-10-16T18:26:19.402Z,5.50
2022-10-16T18:28:46.347Z,5.50
2022-10-16T18:31:15.751Z,6.53
2022-10-16T18:33:48.038Z,5.55
2022-10-16T18:36:16.149Z,5.40
2022-10-16T18:38:43.083Z,5.13
2022-10-16T18:41:09.789Z,5.43
2022-10-16T18:43:37.975Z,9.27
2022-10-16T18:46:14.195Z,7.45
2022-10-16T18:48:42.011Z,7.25
2022-10-16T18:51:18.411Z,6.22
2022-10-16T18:53:47.379Z,6.00
2022-10-16T18:56:15.971Z,7.07
2022-10-16T18:58:44.979Z,5.90
2022-10-16T19:01:17.092Z,6.32
2022-10-16T19:03:43.963Z,10.32
2022-10-16T19:06:13.650Z,8.02
2022-10-16T19:08:41.363Z,6.65
2022-10-16T19:11:09.803Z,6.47
2022-10-16T19:13:36.616Z,7.43
2022-10-16T19:16:19.400Z,7.88
2022-10-16T19:18:54.401Z,7.05
2022-10-16T19:21:21.980Z,7.47
2022-10-16T19:24:15.244Z,6.70
2022-10-16T19:26:42.381Z,6.30
2022-10-16T19:29:10.078Z,6.05
2022-10-16T19:31:36.927Z,5.03
2022-10-16T19:34:06.367Z,5.70
2022-10-16T19:36:37.897Z,6.20
2022-10-16T19:39:08.352Z,5.55
2022-10-16T19:41:36.936Z,4.63
2022-10-16T19:44:06.377Z,4.90
2022-10-16T19:46:34.147Z,4.68
2022-10-16T19:49:06.612Z,4.72
2022-10-16T19:51:33.488Z,4.55
2022-10-16T19:54:03.113Z,5.10
2022-10-16T19:56:31.817Z,4.88
2022-10-16T19:58:59.433Z,4.18
2022-10-16T20:01:28.329Z,4.10
2022-10-16T20:03:55.149Z,3.67
2022-10-16T20:06:22.895Z,3.80
2022-10-16T20:08:52.225Z,4.22
2022-10-16T20:11:24.537Z,3.80
2022-10-16T20:13:51.555Z,3.67
2022-10-16T20:16:19.954Z,3.60
2022-10-16T20:18:48.524Z,4.13
2022-10-16T20:21:18.083Z,3.60
2022-10-16T20:23:47.052Z,3.47
2022-10-16T20:26:13.748Z,3.30
2022-10-16T20:28:41.737Z,3.65
2022-10-16T20:31:12.029Z,3.78
2022-10-16T20:33:39.133Z,3.90
2022-10-16T20:36:11.410Z,2.88
2022-10-16T20:38:38.376Z,3.63
2022-10-16T20:41:05.898Z,3.47
2022-10-16T20:43:32.698Z,3.42
2022-10-16T20:46:01.154Z,3.42
2022-10-16T20:48:28.091Z,3.35
2022-10-16T20:50:54.958Z,3.30
2022-10-16T20:53:21.716Z,3.58
2022-10-16T20:55:48.661Z,3.80
2022-10-16T20:58:15.334Z,3.42
2022-10-16T21:00:42.027Z,3.50
2022-10-16T21:03:11.038Z,3.72
2022-10-16T21:05:42.280Z,3.25
2022-10-16T21:08:09.047Z,3.13
2022-10-16T21:10:35.937Z,3.30
2022-10-16T21:13:03.620Z,3.47
2022-10-16T21:15:30.454Z,3.00
2022-10-16T21:17:57.151Z,3.25
2022-10-16T21:20:24.830Z,3.30
2022-10-16T21:22:51.613Z,3.05
2022-10-16T21:25:18.341Z,2.80
2022-10-16T21:27:45.020Z,3.28
2022-10-16T21:30:12.271Z,3.00
2022-10-16T21:32:39.457Z,3.00
2022-10-16T21:35:07.147Z,3.25
2022-10-16T21:37:34.260Z,3.00
2022-10-16T21:40:01.004Z,2.97
2022-10-16T21:42:28.080Z,3.42
2022-10-16T21:44:55.049Z,2.65
2022-10-16T21:47:21.723Z,3.58
2022-10-16T21:49:48.456Z,3.30
2022-10-16T21:52:16.116Z,3.90
2022-10-16T21:54:42.793Z,2.92
2022-10-16T21:57:09.457Z,2.85
2022-10-16T21:59:36.095Z,3.88
2022-10-16T22:02:03.369Z,2.78
2022-10-16T22:04:30.329Z,3.00
2022-10-16T22:06:57.239Z,2.90
2022-10-16T22:09:23.918Z,3.22
2022-10-16T22:11:50.989Z,2.70
2022-10-16T22:14:20.483Z,2.65
2022-10-16T22:16:48.882Z,2.85
2022-10-16T22:19:18.688Z,2.92
2022-10-16T22:21:47.070Z,3.08
2022-10-16T22:24:15.447Z,2.85
2022-10-16T22:26:42.251Z,2.53
2022-10-16T22:29:13.214Z,2.97
2022-10-16T22:31:40.122Z,2.63
2022-10-16T22:34:06.862Z,3.30
2022-10-16T22:36:34.122Z,3.05
2022-10-16T22:39:01.240Z,3.17
2022-10-16T22:41:28.113Z,3.00
2022-10-16T22:43:54.947Z,3.15
2022-10-16T22:46:24.817Z,2.70
2022-10-16T22:48:52.067Z,3.13
2022-10-16T22:51:19.496Z,3.10
2022-10-16T22:53:47.793Z,3.28
2022-10-16T22:56:16.474Z,3.03
2022-10-16T22:58:44.140Z,3.30
2022-10-16T23:01:12.371Z,3.10
2022-10-16T23:03:39.053Z,3.05
2022-10-16T23:06:05.964Z,3.40
2022-10-16T23:08:32.735Z,2.50
2022-10-16T23:11:02.007Z,3.22
2022-10-16T23:13:29.096Z,2.50
2022-10-16T23:15:55.856Z,2.97
2022-10-16T23:18:22.586Z,2.97
2022-10-16T23:20:49.542Z,2.80
2022-10-16T23:23:16.243Z,2.75
2022-10-16T23:25:47.188Z,2.70
2022-10-16T23:30:46.979Z,2.67
2022-10-16T23:33:13.663Z,2.80
2022-10-16T23:35:40.897Z,2.72
2022-10-16T23:38:07.641Z,2.80
2022-10-16T23:40:34.411Z,2.38
2022-10-16T23:43:01.113Z,2.72
2022-10-16T23:45:27.853Z,3.08
2022-10-16T23:47:54.552Z,2.30
2022-10-16T23:50:21.234Z,2.67
2022-10-16T23:52:47.923Z,2.70
2022-10-16T23:55:14.672Z,2.40
2022-10-16T23:57:41.586Z,2.65
